FDST weather

Siteki Airport
Siteki, Lubombo, Swaziland

Public forecast

Using degrees Celsius for public forecast. Weather courtesy of forecast.io.

METAR (pilot weather report)

Retrieved 2019/09/17 20:00 UTC (31 minutes ago):

FDST 172000Z AUTO 00000KT //// // ////// 17/17 Q1020

TAF (pilot weather forecast)

Forecast is more than 12 hours old.

Closest forecast is Matsapha Airport, 34.9 nm (64.5 km) W. Retrieved 2019/06/03 12:35 UTC (4 months ago):

TAF FDMS 031000Z 0312/0418 12006KT CAVOK